Milagro, New Mexico
Current Conditions -  °F | °C
As of 8:53 AM on Friday 21 Nov 2014 (Local Time) from KCQC Reporting Station
Clear Clear  
Wind Chill: 41°   Ceiling: Unl
Heat Index: 45°   Visibility: 10mi
Dew Point: 16°   Wind: 8mph
Humidity: 31%   Direction: 280°W
Pressure: 30.07"   Gusts: NA
Location:  34.5735°N, 105.476°W
Report Text: KCQC 211553Z AUTO 28007KT 10SM CLR 07/M09 A3007 RMK AO2 SLP162 T00721089
Loading
Personal Weather Stations






























Interactive Weather Map New forecast layout! Learn more

10-Day Weather Forecast

Advertisements
Track Severe Weather on mobile